createdAt,value
2018-10-16T00:00:15.085Z,101451.20
2018-10-16T00:02:44.257Z,101455.83
2018-10-16T00:05:12.839Z,101453.11
2018-10-16T00:07:41.386Z,101449.70
2018-10-16T00:10:10.494Z,101445.95
2018-10-16T00:12:39.182Z,101454.45
2018-10-16T00:15:09.305Z,101446.48
2018-10-16T00:17:37.868Z,101457.34
2018-10-16T00:20:07.219Z,101456.49
2018-10-16T00:22:36.074Z,101459.56
2018-10-16T00:25:04.634Z,101464.31
2018-10-16T00:27:33.195Z,101458.52
2018-10-16T00:30:01.779Z,101459.04
2018-10-16T00:32:30.433Z,101459.70
2018-10-16T00:34:58.966Z,101454.30
2018-10-16T00:37:27.561Z,101446.28
2018-10-16T00:39:56.097Z,101447.16
2018-10-16T00:42:24.650Z,101455.44
2018-10-16T00:44:53.193Z,101454.07
2018-10-16T00:47:21.758Z,101451.36
2018-10-16T00:49:50.295Z,101461.38
2018-10-16T00:52:18.859Z,101458.48
2018-10-16T00:54:47.438Z,101460.52
2018-10-16T00:57:16.047Z,101456.08
2018-10-16T00:59:57.778Z,101450.17
2018-10-16T01:02:29.920Z,101457.82
2018-10-16T01:04:58.582Z,101455.43
2018-10-16T01:07:27.164Z,101465.11
2018-10-16T01:09:55.700Z,101462.88
2018-10-16T01:12:24.267Z,101461.20
2018-10-16T01:14:52.790Z,101459.84
2018-10-16T01:17:21.363Z,101455.09
2018-10-16T01:19:49.889Z,101446.43
2018-10-16T01:22:18.453Z,101449.66
2018-10-16T01:24:46.977Z,101447.98
2018-10-16T01:27:15.580Z,101446.94
2018-10-16T01:29:44.118Z,101448.94
2018-10-16T01:32:12.652Z,101455.68
2018-10-16T01:34:42.249Z,101459.59
2018-10-16T01:37:10.816Z,101459.59
2018-10-16T01:39:39.376Z,101461.81
2018-10-16T01:42:07.915Z,101460.13
2018-10-16T01:44:36.494Z,101462.84
2018-10-16T01:47:05.282Z,101470.47
2018-10-16T01:49:33.839Z,101466.39
2018-10-16T01:52:02.381Z,101471.64
2018-10-16T01:54:30.937Z,101469.55
2018-10-16T01:56:59.483Z,101468.36
2018-10-16T01:59:28.054Z,101468.57
2018-10-16T02:01:56.603Z,101471.12
2018-10-16T02:04:25.157Z,101473.48
2018-10-16T02:06:53.698Z,101475.66
2018-10-16T02:09:23.015Z,101471.39
2018-10-16T02:11:51.559Z,101475.47
2018-10-16T02:14:20.117Z,101468.38
2018-10-16T02:16:48.640Z,101469.08
2018-10-16T02:19:17.204Z,101471.42
2018-10-16T02:21:45.738Z,101472.78
2018-10-16T02:24:14.367Z,101473.46
2018-10-16T02:26:42.905Z,101472.20
2018-10-16T02:29:11.472Z,101475.56
2018-10-16T02:31:40.003Z,101471.48
2018-10-16T02:34:08.537Z,101479.14
2018-10-16T02:36:37.122Z,101477.80
2018-10-16T02:39:08.208Z,101475.95
2018-10-16T02:41:36.887Z,101475.59
2018-10-16T02:44:06.253Z,101477.80
2018-10-16T02:46:34.823Z,101472.03
2018-10-16T02:49:03.352Z,101480.05
2018-10-16T02:51:31.902Z,101493.44
2018-10-16T02:54:00.440Z,101495.08
2018-10-16T02:56:28.994Z,101494.53
2018-10-16T02:58:57.543Z,101493.83
2018-10-16T03:01:26.383Z,101498.39
2018-10-16T03:03:54.917Z,101492.52
2018-10-16T03:06:23.481Z,101489.53
2018-10-16T03:08:52.055Z,101494.98
2018-10-16T03:11:20.618Z,101488.41
2018-10-16T03:13:49.154Z,101492.80
2018-10-16T03:16:17.739Z,101476.79
2018-10-16T03:18:46.281Z,101492.69
2018-10-16T03:21:14.851Z,101493.38
2018-10-16T03:23:43.377Z,101492.33
2018-10-16T03:26:11.935Z,101498.78
2018-10-16T03:28:40.473Z,101497.76
2018-10-16T03:31:09.037Z,101497.91
2018-10-16T03:33:37.599Z,101490.94
2018-10-16T03:36:06.677Z,101491.06
2018-10-16T03:38:35.249Z,101502.78
2018-10-16T03:41:03.834Z,101494.64
2018-10-16T03:43:32.399Z,101496.00
2018-10-16T03:46:00.958Z,101497.53
2018-10-16T03:48:29.483Z,101495.13
2018-10-16T03:50:58.062Z,101509.39
2018-10-16T03:53:26.717Z,101507.53
2018-10-16T03:55:55.270Z,101514.29
2018-10-16T03:58:23.798Z,101509.18
2018-10-16T04:00:52.343Z,101516.47
2018-10-16T04:03:20.862Z,101515.96
2018-10-16T04:05:49.489Z,101513.20
2018-10-16T04:08:18.063Z,101512.89
2018-10-16T04:10:46.641Z,101518.20
2018-10-16T04:13:15.205Z,101516.03
2018-10-16T04:15:43.790Z,101522.52
2018-10-16T04:18:12.319Z,101512.92
2018-10-16T04:20:40.898Z,101515.97
2018-10-16T04:23:09.406Z,101516.37
2018-10-16T04:25:37.934Z,101519.50
2018-10-16T04:28:06.704Z,101517.27
2018-10-16T04:30:35.264Z,101517.55
2018-10-16T04:33:03.757Z,101517.86
2018-10-16T04:35:32.301Z,101515.13
2018-10-16T04:38:00.833Z,101520.06
2018-10-16T04:40:29.347Z,101516.88
2018-10-16T04:42:57.886Z,101518.13
2018-10-16T04:45:26.404Z,101516.14
2018-10-16T04:47:54.959Z,101506.31
2018-10-16T04:50:23.483Z,101507.63
2018-10-16T04:52:52.025Z,101502.25
2018-10-16T04:55:20.632Z,101504.45
2018-10-16T04:57:49.121Z,101511.07
2018-10-16T05:00:17.631Z,101511.87
2018-10-16T05:02:46.221Z,101514.72
2018-10-16T05:05:21.533Z,101514.16
2018-10-16T05:07:50.771Z,101512.30
2018-10-16T05:10:20.004Z,101513.56
2018-10-16T05:12:48.638Z,101501.34
2018-10-16T05:15:26.993Z,101502.24
2018-10-16T05:17:55.935Z,101501.09
2018-10-16T05:20:24.462Z,101515.52
2018-10-16T05:22:53.345Z,101519.59
2018-10-16T05:25:21.931Z,101521.91
2018-10-16T05:27:50.525Z,101530.14
2018-10-16T05:30:19.104Z,101529.59
2018-10-16T05:32:47.691Z,101533.59
2018-10-16T05:35:16.216Z,101523.47
2018-10-16T05:37:44.767Z,101536.41
2018-10-16T05:40:13.289Z,101532.75
2018-10-16T05:42:41.819Z,101531.36
2018-10-16T05:45:12.278Z,101529.80
2018-10-16T05:47:41.983Z,101533.80
2018-10-16T05:50:11.080Z,101530.18
2018-10-16T05:52:39.630Z,101542.67
2018-10-16T05:55:08.486Z,101532.98
2018-10-16T05:57:37.082Z,101547.11
2018-10-16T06:00:17.839Z,101553.66
2018-10-16T06:02:47.455Z,101549.83
2018-10-16T06:05:15.986Z,101555.52
2018-10-16T06:07:44.956Z,101558.63
2018-10-16T06:10:13.878Z,101565.91
2018-10-16T06:12:42.442Z,101564.08
2018-10-16T06:15:11.697Z,101563.09
2018-10-16T06:17:40.223Z,101561.00
2018-10-16T06:20:11.488Z,101576.78
2018-10-16T06:22:40.095Z,101582.41
2018-10-16T06:25:09.593Z,101566.91
2018-10-16T06:27:38.422Z,101580.30
2018-10-16T06:30:07.092Z,101573.03
2018-10-16T06:32:35.973Z,101585.41
2018-10-16T06:35:04.536Z,101581.94
2018-10-16T06:37:33.079Z,101573.89
2018-10-16T06:40:01.613Z,101577.62
2018-10-16T06:42:30.132Z,101580.68
2018-10-16T06:44:58.662Z,101590.23
2018-10-16T06:47:27.275Z,101595.56
2018-10-16T06:49:55.728Z,101591.38
2018-10-16T06:52:24.254Z,101590.41
2018-10-16T06:54:52.808Z,101597.91
2018-10-16T06:57:21.334Z,101592.48
2018-10-16T06:59:49.879Z,101598.94
2018-10-16T07:02:18.392Z,101603.72
2018-10-16T07:04:47.266Z,101600.14
2018-10-16T07:07:15.993Z,101613.92
2018-10-16T07:09:44.364Z,101606.09
2018-10-16T07:12:12.904Z,101604.56
2018-10-16T07:14:41.414Z,101605.02
2018-10-16T07:17:09.955Z,101616.04
2018-10-16T07:19:38.462Z,101620.78
2018-10-16T07:22:10.165Z,101610.48
2018-10-16T07:24:38.719Z,101605.25
2018-10-16T07:27:07.273Z,101611.05
2018-10-16T07:29:35.987Z,101620.53
2018-10-16T07:32:05.366Z,101621.14
2018-10-16T07:34:34.335Z,101624.13
2018-10-16T07:37:02.948Z,101633.66
2018-10-16T07:39:31.461Z,101633.39
2018-10-16T07:42:00.054Z,101634.88
2018-10-16T07:44:28.563Z,101633.76
2018-10-16T07:46:57.146Z,101629.33
2018-10-16T07:49:25.673Z,101632.57
2018-10-16T07:51:54.237Z,101637.61
2018-10-16T07:54:22.759Z,101629.33
2018-10-16T07:56:51.598Z,101636.97
2018-10-16T07:59:20.132Z,101639.93
2018-10-16T08:01:49.258Z,101645.48
2018-10-16T08:04:17.780Z,101650.67
2018-10-16T08:06:46.345Z,101643.61
2018-10-16T08:09:16.409Z,101649.50
2018-10-16T08:11:50.028Z,101650.98
2018-10-16T08:14:19.431Z,101653.86
2018-10-16T08:16:49.302Z,101653.58
2018-10-16T08:19:17.814Z,101653.90
2018-10-16T08:21:47.241Z,101657.20
2018-10-16T08:24:15.806Z,101654.59
2018-10-16T08:26:44.366Z,101648.33
2018-10-16T08:29:12.879Z,101658.21
2018-10-16T08:31:41.396Z,101657.75
2018-10-16T08:34:10.060Z,101659.99
2018-10-16T08:36:38.561Z,101653.58
2018-10-16T08:39:15.910Z,101649.36
2018-10-16T08:41:57.011Z,101650.62
2018-10-16T08:44:36.666Z,101650.03
2018-10-16T08:47:16.532Z,101651.91
2018-10-16T08:49:56.346Z,101651.52
2018-10-16T08:52:24.886Z,101647.94
2018-10-16T08:54:53.461Z,101653.20
2018-10-16T08:57:21.945Z,101653.87
2018-10-16T08:59:50.495Z,101653.70
2018-10-16T09:02:19.003Z,101651.31
2018-10-16T09:04:47.545Z,101652.82
2018-10-16T09:07:16.070Z,101649.34
2018-10-16T09:09:44.619Z,101647.87
2018-10-16T09:12:13.133Z,101649.95
2018-10-16T09:14:41.684Z,101654.71
2018-10-16T09:17:10.284Z,101649.61
2018-10-16T09:19:38.818Z,101650.11
2018-10-16T09:22:07.360Z,101650.39
2018-10-16T09:24:35.913Z,101648.78
2018-10-16T09:27:04.457Z,101651.85
2018-10-16T09:29:33.055Z,101650.77
2018-10-16T09:32:01.618Z,101649.77
2018-10-16T09:34:30.198Z,101647.69
2018-10-16T09:36:58.733Z,101653.05
2018-10-16T09:39:27.290Z,101651.19
2018-10-16T09:41:55.822Z,101654.45
2018-10-16T09:44:24.371Z,101651.34
2018-10-16T09:46:52.892Z,101660.69
2018-10-16T09:49:21.438Z,101660.41
2018-10-16T09:51:49.950Z,101657.14
2018-10-16T09:54:18.502Z,101656.31
2018-10-16T09:56:47.015Z,101659.34
2018-10-16T09:59:15.549Z,101656.31
2018-10-16T10:01:46.476Z,101661.95
2018-10-16T10:04:15.097Z,101657.78
2018-10-16T10:06:43.626Z,101652.26
2018-10-16T10:09:13.279Z,101650.72
2018-10-16T10:11:42.221Z,101645.88
2018-10-16T10:14:10.798Z,101649.36
2018-10-16T10:16:39.644Z,101647.36
2018-10-16T10:19:08.195Z,101643.48
2018-10-16T10:21:36.818Z,101632.31
2018-10-16T10:24:06.212Z,101627.75
2018-10-16T10:26:34.777Z,101633.00
2018-10-16T10:29:03.302Z,101624.82
2018-10-16T10:31:31.855Z,101628.97
2018-10-16T10:34:00.375Z,101632.64
2018-10-16T10:36:28.925Z,101628.95
2018-10-16T10:38:57.443Z,101632.08
2018-10-16T10:41:25.977Z,101626.14
2018-10-16T10:43:54.487Z,101623.85
2018-10-16T10:46:23.041Z,101628.97
2018-10-16T10:48:51.544Z,101628.47
2018-10-16T10:51:20.434Z,101621.36
2018-10-16T10:53:48.653Z,101628.92
2018-10-16T10:56:17.202Z,101626.93
2018-10-16T10:58:45.721Z,101620.64
2018-10-16T11:01:14.258Z,101618.42
2018-10-16T11:03:42.836Z,101617.98
2018-10-16T11:06:11.334Z,101616.79
2018-10-16T11:11:20.354Z,101616.34
2018-10-16T11:13:48.879Z,101617.59
2018-10-16T11:16:17.408Z,101618.98
2018-10-16T11:18:45.898Z,101623.80
2018-10-16T11:21:14.563Z,101623.94
2018-10-16T11:23:43.002Z,101623.15
2018-10-16T11:26:11.532Z,101627.09
2018-10-16T11:28:40.039Z,101618.79
2018-10-16T11:31:08.530Z,101622.45
2018-10-16T11:33:37.061Z,101623.28
2018-10-16T11:36:05.709Z,101620.73
2018-10-16T11:38:34.246Z,101621.30
2018-10-16T11:41:02.748Z,101623.05
2018-10-16T11:43:31.277Z,101627.86
2018-10-16T11:45:59.831Z,101628.19
2018-10-16T11:48:28.374Z,101626.64
2018-10-16T11:50:56.944Z,101616.70
2018-10-16T11:53:25.540Z,101623.46
2018-10-16T11:55:54.112Z,101623.02
2018-10-16T11:58:22.661Z,101621.45
2018-10-16T12:00:51.198Z,101623.81
2018-10-16T12:03:19.737Z,101616.86
2018-10-16T12:05:48.254Z,101617.69
2018-10-16T12:08:16.882Z,101616.54
2018-10-16T12:10:45.433Z,101619.95
2018-10-16T12:13:14.038Z,101613.92
2018-10-16T12:15:42.532Z,101621.55
2018-10-16T12:18:16.467Z,101620.19
2018-10-16T12:20:48.462Z,101620.22
2018-10-16T12:23:17.012Z,101614.73
2018-10-16T12:25:45.537Z,101614.75
2018-10-16T12:28:14.100Z,101610.59
2018-10-16T12:30:42.605Z,101618.07
2018-10-16T12:33:11.236Z,101607.50
2018-10-16T12:35:39.701Z,101606.42
2018-10-16T12:38:08.271Z,101607.20
2018-10-16T12:40:36.780Z,101612.47
2018-10-16T12:43:05.596Z,101608.31
2018-10-16T12:45:34.167Z,101613.63
2018-10-16T12:48:02.754Z,101611.41
2018-10-16T12:50:31.262Z,101613.41
2018-10-16T12:52:59.830Z,101608.92
2018-10-16T12:55:28.368Z,101610.04
2018-10-16T12:57:56.934Z,101604.16
2018-10-16T13:00:25.471Z,101615.91
2018-10-16T13:02:54.020Z,101610.29
2018-10-16T13:05:22.638Z,101609.45
2018-10-16T13:07:51.213Z,101611.98
2018-10-16T13:10:19.940Z,101613.66
2018-10-16T13:12:48.500Z,101611.42
2018-10-16T13:15:17.774Z,101614.50
2018-10-16T13:17:46.317Z,101613.37
2018-10-16T13:20:15.668Z,101611.33
2018-10-16T13:22:45.570Z,101614.95
2018-10-16T13:25:15.157Z,101612.17
2018-10-16T13:27:43.769Z,101602.97
2018-10-16T13:30:20.044Z,101605.42
2018-10-16T13:32:49.533Z,101604.84
2018-10-16T13:35:19.294Z,101603.20
2018-10-16T13:37:48.400Z,101603.78
2018-10-16T13:40:16.982Z,101597.88
2018-10-16T13:42:45.680Z,101600.52
2018-10-16T13:45:15.760Z,101604.78
2018-10-16T13:47:44.283Z,101605.38
2018-10-16T13:50:14.368Z,101601.48
2018-10-16T13:52:43.158Z,101605.77
2018-10-16T13:55:12.425Z,101606.05
2018-10-16T13:57:41.486Z,101603.77
2018-10-16T14:00:17.463Z,101607.44
2018-10-16T14:02:47.295Z,101606.41
2018-10-16T14:05:15.978Z,101600.21
2018-10-16T14:07:44.582Z,101603.15
2018-10-16T14:10:14.320Z,101607.08
2018-10-16T14:12:43.842Z,101614.13
2018-10-16T14:15:13.001Z,101612.20
2018-10-16T14:17:41.561Z,101612.31
2018-10-16T14:20:10.636Z,101613.56
2018-10-16T14:22:40.318Z,101617.06
2018-10-16T14:25:10.533Z,101607.13
2018-10-16T14:27:39.471Z,101608.28
2018-10-16T14:30:09.678Z,101609.71
2018-10-16T14:32:38.345Z,101606.65
2018-10-16T14:35:07.609Z,101611.66
2018-10-16T14:37:36.233Z,101613.48
2018-10-16T14:40:04.981Z,101618.38
2018-10-16T14:42:33.479Z,101615.92
2018-10-16T14:45:02.001Z,101615.66
2018-10-16T14:47:30.544Z,101617.41
2018-10-16T14:49:59.076Z,101619.97
2018-10-16T14:52:27.620Z,101619.48
2018-10-16T14:54:56.160Z,101618.75
2018-10-16T14:57:24.725Z,101616.31
2018-10-16T14:59:53.253Z,101618.14
2018-10-16T15:02:21.817Z,101621.38
2018-10-16T15:04:50.379Z,101623.52
2018-10-16T15:07:19.019Z,101627.14
2018-10-16T15:09:47.565Z,101630.13
2018-10-16T15:12:16.135Z,101631.22
2018-10-16T15:14:44.695Z,101626.12
2018-10-16T15:17:13.264Z,101634.81
2018-10-16T15:19:41.807Z,101628.86
2018-10-16T15:22:10.462Z,101624.62
2018-10-16T15:24:38.926Z,101627.33
2018-10-16T15:27:07.501Z,101627.05
2018-10-16T15:29:36.098Z,101624.34
2018-10-16T15:32:04.735Z,101627.66
2018-10-16T15:34:33.242Z,101629.56
2018-10-16T15:37:01.790Z,101632.11
2018-10-16T15:39:30.361Z,101636.25
2018-10-16T15:41:58.938Z,101635.54
2018-10-16T15:44:27.787Z,101633.86
2018-10-16T15:46:56.330Z,101633.80
2018-10-16T15:49:24.887Z,101633.34
2018-10-16T15:51:53.579Z,101635.50
2018-10-16T15:54:22.127Z,101640.69
2018-10-16T15:56:50.706Z,101642.88
2018-10-16T15:59:19.250Z,101640.70
2018-10-16T16:01:47.784Z,101653.00
2018-10-16T16:04:16.353Z,101652.64
2018-10-16T16:06:44.874Z,101649.96
2018-10-16T16:09:13.431Z,101656.11
2018-10-16T16:11:41.984Z,101657.47
2018-10-16T16:14:10.577Z,101663.26
2018-10-16T16:16:39.081Z,101662.80
2018-10-16T16:19:07.680Z,101667.12
2018-10-16T16:21:36.236Z,101658.83
2018-10-16T16:24:04.861Z,101664.91
2018-10-16T16:26:33.410Z,101667.96
2018-10-16T16:29:01.930Z,101660.76
2018-10-16T16:31:30.475Z,101664.91
2018-10-16T16:33:59.046Z,101674.64
2018-10-16T16:36:27.588Z,101669.43
2018-10-16T16:38:56.167Z,101674.18
2018-10-16T16:41:24.723Z,101675.11
2018-10-16T16:43:53.377Z,101685.47
2018-10-16T16:46:21.846Z,101683.54
2018-10-16T16:48:50.353Z,101698.13
2018-10-16T16:51:18.920Z,101693.30
2018-10-16T16:53:47.440Z,101697.18
2018-10-16T16:56:16.066Z,101690.64
2018-10-16T16:58:44.523Z,101689.84
2018-10-16T17:01:13.072Z,101694.69
2018-10-16T17:03:41.606Z,101693.41
2018-10-16T17:06:10.147Z,101695.37
2018-10-16T17:08:38.674Z,101695.70
2018-10-16T17:11:07.311Z,101699.95
2018-10-16T17:13:35.831Z,101706.72
2018-10-16T17:16:04.392Z,101704.37
2018-10-16T17:18:32.921Z,101705.89
2018-10-16T17:21:01.464Z,101708.41
2018-10-16T17:23:29.979Z,101709.18
2018-10-16T17:25:58.694Z,101711.03
2018-10-16T17:28:27.087Z,101702.52
2018-10-16T17:30:55.588Z,101712.95
2018-10-16T17:33:24.134Z,101718.69
2018-10-16T17:35:52.651Z,101716.42
2018-10-16T17:38:21.210Z,101720.43
2018-10-16T17:40:49.734Z,101715.06
2018-10-16T17:43:18.260Z,101722.06
2018-10-16T17:45:46.764Z,101726.53
2018-10-16T17:48:15.394Z,101734.34
2018-10-16T17:50:43.872Z,101731.28
2018-10-16T17:53:12.407Z,101733.08
2018-10-16T17:55:40.915Z,101746.36
2018-10-16T17:58:09.473Z,101740.98
2018-10-16T18:00:38.004Z,101741.40
2018-10-16T18:03:06.827Z,101741.94
2018-10-16T18:05:35.335Z,101745.22
2018-10-16T18:08:03.885Z,101740.78
2018-10-16T18:10:32.397Z,101738.56
2018-10-16T18:13:00.939Z,101741.20
2018-10-16T18:15:29.465Z,101740.36
2018-10-16T18:17:58.019Z,101741.30
2018-10-16T18:20:26.528Z,101741.63
2018-10-16T18:22:55.103Z,101745.84
2018-10-16T18:25:23.618Z,101745.91
2018-10-16T18:27:52.133Z,101745.04
2018-10-16T18:30:20.690Z,101747.89
2018-10-16T18:32:49.189Z,101753.70
2018-10-16T18:35:17.727Z,101752.14
2018-10-16T18:37:46.304Z,101750.12
2018-10-16T18:40:15.157Z,101752.25
2018-10-16T18:42:43.685Z,101755.75
2018-10-16T18:45:13.669Z,101754.23
2018-10-16T18:47:42.125Z,101756.12
2018-10-16T18:50:11.902Z,101762.22
2018-10-16T18:52:40.575Z,101761.88
2018-10-16T18:55:10.850Z,101761.45
2018-10-16T18:57:39.409Z,101759.76
2018-10-16T19:00:10.313Z,101763.47
2018-10-16T19:02:38.930Z,101768.09
2018-10-16T19:05:08.433Z,101765.13
2018-10-16T19:07:36.991Z,101764.12
2018-10-16T19:10:06.294Z,101760.22
2018-10-16T19:12:35.143Z,101762.31
2018-10-16T19:15:03.811Z,101757.57
2018-10-16T19:17:32.328Z,101760.41
2018-10-16T19:20:00.936Z,101759.03
2018-10-16T19:22:29.441Z,101760.16
2018-10-16T19:24:57.990Z,101762.14
2018-10-16T19:27:26.561Z,101766.36
2018-10-16T19:29:55.123Z,101772.03
2018-10-16T19:32:23.621Z,101771.00
2018-10-16T19:34:52.139Z,101775.66
2018-10-16T19:37:20.730Z,101775.00
2018-10-16T19:39:49.313Z,101775.39
2018-10-16T19:42:17.851Z,101772.87
2018-10-16T19:44:46.397Z,101769.99
2018-10-16T19:47:15.413Z,101776.98
2018-10-16T19:49:43.920Z,101768.53
2018-10-16T19:52:12.482Z,101773.18
2018-10-16T19:54:41.029Z,101772.87
2018-10-16T19:57:09.680Z,101775.92
2018-10-16T19:59:38.130Z,101775.80
2018-10-16T20:02:07.650Z,101779.07
2018-10-16T20:04:36.283Z,101784.38
2018-10-16T20:07:05.359Z,101782.26
2018-10-16T20:09:34.839Z,101784.83
2018-10-16T20:12:04.372Z,101789.34
2018-10-16T20:14:33.000Z,101787.00
2018-10-16T20:17:01.615Z,101778.00
2018-10-16T20:19:30.518Z,101786.32
2018-10-16T20:21:59.089Z,101786.72
2018-10-16T20:24:27.666Z,101783.00
2018-10-16T20:26:56.212Z,101781.39
2018-10-16T20:29:24.746Z,101783.69
2018-10-16T20:31:53.315Z,101785.77
2018-10-16T20:34:21.823Z,101778.25
2018-10-16T20:36:50.393Z,101781.52
2018-10-16T20:39:19.083Z,101782.72
2018-10-16T20:41:47.658Z,101778.59
2018-10-16T20:44:16.186Z,101776.88
2018-10-16T20:46:44.718Z,101770.55
2018-10-16T20:49:13.326Z,101772.66
2018-10-16T20:51:41.816Z,101774.42
2018-10-16T20:54:10.333Z,101776.64
2018-10-16T20:56:38.879Z,101775.27
2018-10-16T20:59:07.387Z,101772.74
2018-10-16T21:01:35.926Z,101772.89
2018-10-16T21:04:04.782Z,101769.52
2018-10-16T21:06:33.495Z,101769.59
2018-10-16T21:09:01.882Z,101762.07
2018-10-16T21:11:30.434Z,101767.42
2018-10-16T21:13:58.954Z,101770.56
2018-10-16T21:16:27.443Z,101762.63
2018-10-16T21:18:55.973Z,101766.89
2018-10-16T21:21:24.488Z,101763.03
2018-10-16T21:23:53.029Z,101758.22
2018-10-16T21:26:21.658Z,101765.53
2018-10-16T21:28:50.205Z,101756.08
2018-10-16T21:31:18.733Z,101763.05
2018-10-16T21:33:47.269Z,101763.05
2018-10-16T21:36:15.807Z,101763.49
2018-10-16T21:38:44.349Z,101764.61
2018-10-16T21:41:12.952Z,101763.48
2018-10-16T21:43:41.538Z,101763.16
2018-10-16T21:46:10.052Z,101759.96
2018-10-16T21:48:38.578Z,101758.19
2018-10-16T21:51:07.094Z,101756.63
2018-10-16T21:53:35.609Z,101757.51
2018-10-16T21:56:04.197Z,101754.39
2018-10-16T21:58:32.729Z,101752.25
2018-10-16T22:01:06.475Z,101753.36
2018-10-16T22:03:35.027Z,101744.33
2018-10-16T22:06:03.556Z,101750.38
2018-10-16T22:08:32.090Z,101745.80
2018-10-16T22:11:00.636Z,101746.84
2018-10-16T22:13:29.180Z,101748.27
2018-10-16T22:15:57.697Z,101738.54
2018-10-16T22:18:26.236Z,101738.59
2018-10-16T22:20:54.779Z,101748.22
2018-10-16T22:23:23.312Z,101750.01
2018-10-16T22:25:51.825Z,101749.26
2018-10-16T22:28:20.393Z,101759.72
2018-10-16T22:30:48.901Z,101752.53
2018-10-16T22:33:17.440Z,101755.31
2018-10-16T22:35:45.966Z,101752.47
2018-10-16T22:38:14.493Z,101755.97
2018-10-16T22:40:42.984Z,101764.66
2018-10-16T22:43:11.583Z,101756.25
2018-10-16T22:45:40.088Z,101758.61
2018-10-16T22:48:08.638Z,101761.67
2018-10-16T22:50:37.207Z,101762.20
2018-10-16T22:53:05.877Z,101757.70
2018-10-16T22:55:34.403Z,101758.63
2018-10-16T22:58:02.942Z,101757.22
2018-10-16T23:00:31.450Z,101758.23
2018-10-16T23:02:59.989Z,101760.60
2018-10-16T23:05:28.514Z,101757.78
2018-10-16T23:07:57.069Z,101760.03
2018-10-16T23:10:25.585Z,101762.79
2018-10-16T23:13:00.851Z,101757.16
2018-10-16T23:15:29.336Z,101758.72
2018-10-16T23:17:57.879Z,101758.40
2018-10-16T23:20:26.456Z,101754.98
2018-10-16T23:22:55.148Z,101754.66
2018-10-16T23:25:23.655Z,101752.61
2018-10-16T23:27:52.249Z,101754.33
2018-10-16T23:30:20.803Z,101752.80
2018-10-16T23:32:49.423Z,101744.45
2018-10-16T23:35:18.010Z,101746.03
2018-10-16T23:37:46.531Z,101747.59
2018-10-16T23:40:15.078Z,101740.80
2018-10-16T23:42:43.599Z,101748.63
2018-10-16T23:45:12.146Z,101745.38
2018-10-16T23:47:40.669Z,101744.10
2018-10-16T23:50:09.230Z,101744.97
2018-10-16T23:52:37.746Z,101741.36
2018-10-16T23:55:08.035Z,101741.72
2018-10-16T23:57:36.544Z,101734.44
